createdAt,value
2023-01-26T00:00:11.396Z,6.54
2023-01-26T00:03:00.964Z,6.43
2023-01-26T00:05:29.796Z,6.41
2023-01-26T00:07:58.792Z,6.45
2023-01-26T00:10:27.741Z,6.47
2023-01-26T00:12:57.611Z,6.55
2023-01-26T00:15:26.258Z,6.50
2023-01-26T00:17:55.609Z,6.45
2023-01-26T00:20:24.350Z,6.43
2023-01-26T00:22:52.975Z,6.45
2023-01-26T00:25:22.596Z,6.45
2023-01-26T00:27:51.217Z,6.45
2023-01-26T00:30:21.525Z,6.48
2023-01-26T00:32:50.327Z,6.50
2023-01-26T00:35:20.126Z,6.49
2023-01-26T00:37:48.934Z,6.48
2023-01-26T00:40:17.714Z,6.40
2023-01-26T00:42:46.579Z,6.42
2023-01-26T00:45:15.363Z,6.42
2023-01-26T00:47:45.317Z,6.38
2023-01-26T00:50:15.205Z,6.39
2023-01-26T00:52:44.104Z,6.47
2023-01-26T00:55:13.157Z,6.49
2023-01-26T00:57:42.743Z,6.49
2023-01-26T01:00:16.995Z,6.47
2023-01-26T01:02:45.781Z,6.44
2023-01-26T01:05:14.748Z,6.42
2023-01-26T01:07:43.579Z,6.38
2023-01-26T01:10:12.680Z,6.33
2023-01-26T01:12:41.941Z,6.31
2023-01-26T01:15:11.633Z,6.24
2023-01-26T01:17:40.675Z,6.28
2023-01-26T01:20:12.051Z,6.27
2023-01-26T01:22:41.378Z,6.19
2023-01-26T01:25:10.308Z,6.13
2023-01-26T01:27:39.020Z,6.13
2023-01-26T01:30:09.021Z,6.13
2023-01-26T01:32:40.252Z,6.15
2023-01-26T01:35:09.285Z,6.16
2023-01-26T01:37:38.058Z,6.16
2023-01-26T01:40:07.556Z,6.12
2023-01-26T01:42:36.328Z,6.05
2023-01-26T01:45:26.738Z,5.99
2023-01-26T01:48:00.130Z,5.82
2023-01-26T01:50:31.695Z,5.81
2023-01-26T01:53:00.466Z,5.79
2023-01-26T01:55:29.940Z,5.80
2023-01-26T01:58:02.341Z,5.79
2023-01-26T02:00:31.190Z,5.72
2023-01-26T02:03:34.169Z,5.70
2023-01-26T02:06:12.714Z,5.62
2023-01-26T02:08:48.233Z,5.61
2023-01-26T02:11:46.451Z,5.59
2023-01-26T02:14:16.406Z,5.50
2023-01-26T02:16:45.344Z,5.52
2023-01-26T02:19:32.535Z,5.52
2023-01-26T02:22:11.432Z,5.45
2023-01-26T02:24:40.982Z,5.39
2023-01-26T02:27:10.547Z,5.36
2023-01-26T02:29:39.426Z,5.38
2023-01-26T02:32:08.288Z,5.39
2023-01-26T02:34:37.135Z,5.36
2023-01-26T02:37:06.017Z,5.32
2023-01-26T02:40:13.808Z,5.26
2023-01-26T02:42:44.883Z,5.05
2023-01-26T02:45:16.714Z,4.98
2023-01-26T02:47:45.668Z,4.83
2023-01-26T02:50:15.385Z,4.80
2023-01-26T02:52:44.988Z,4.70
2023-01-26T02:55:22.714Z,4.67
2023-01-26T02:57:54.159Z,4.64
2023-01-26T03:00:28.366Z,4.62
2023-01-26T03:03:00.039Z,4.57
2023-01-26T03:05:29.523Z,4.58
2023-01-26T03:07:58.263Z,4.59
2023-01-26T03:10:27.517Z,4.62
2023-01-26T03:12:56.268Z,4.61
2023-01-26T03:15:43.573Z,4.59
2023-01-26T03:18:36.277Z,4.52
2023-01-26T03:21:28.634Z,4.45
2023-01-26T03:24:16.629Z,4.40
2023-01-26T03:27:04.391Z,4.32
2023-01-26T03:29:33.944Z,4.29
2023-01-26T03:32:02.894Z,4.29
2023-01-26T03:34:32.286Z,4.34
2023-01-26T03:37:01.415Z,4.37
2023-01-26T03:39:48.719Z,4.35
2023-01-26T03:42:36.204Z,4.35
2023-01-26T03:45:25.130Z,4.34
2023-01-26T03:48:12.615Z,4.34
2023-01-26T03:51:00.025Z,4.32
2023-01-26T03:53:47.544Z,4.27
2023-01-26T03:56:23.210Z,4.28
2023-01-26T03:58:57.506Z,4.32
2023-01-26T04:01:28.480Z,4.35
2023-01-26T04:04:16.731Z,4.33
2023-01-26T04:07:06.535Z,4.28
2023-01-26T04:09:37.365Z,4.24
2023-01-26T04:12:07.132Z,4.27
2023-01-26T04:14:54.845Z,4.26
2023-01-26T04:17:42.553Z,4.17
2023-01-26T04:20:30.424Z,4.05
2023-01-26T04:22:59.701Z,4.04
2023-01-26T04:25:28.523Z,4.09
2023-01-26T04:27:57.339Z,4.10
2023-01-26T04:30:26.039Z,4.04
2023-01-26T04:32:54.841Z,4.02
2023-01-26T04:35:23.448Z,3.99
2023-01-26T04:37:52.126Z,3.99
2023-01-26T04:40:21.439Z,3.99
2023-01-26T04:42:50.257Z,3.98
2023-01-26T04:45:19.004Z,3.98
2023-01-26T04:47:47.821Z,3.98
2023-01-26T04:50:16.927Z,3.99
2023-01-26T04:52:45.876Z,4.01
2023-01-26T04:55:14.875Z,3.97
2023-01-26T04:57:43.949Z,3.95
2023-01-26T05:00:14.600Z,3.97
2023-01-26T05:02:43.419Z,3.98
2023-01-26T05:05:12.486Z,4.01
2023-01-26T05:07:41.482Z,3.97
2023-01-26T05:10:12.627Z,3.96
2023-01-26T05:12:43.419Z,3.91
2023-01-26T05:15:12.111Z,3.93
2023-01-26T05:17:40.984Z,3.95
2023-01-26T05:20:11.042Z,3.97
2023-01-26T05:22:40.747Z,3.97
2023-01-26T05:25:10.754Z,4.00
2023-01-26T05:27:39.437Z,4.02
2023-01-26T05:30:14.471Z,4.05
2023-01-26T05:32:43.388Z,4.06
2023-01-26T05:35:12.191Z,4.08
2023-01-26T05:37:43.035Z,4.07
2023-01-26T05:40:13.585Z,4.05
2023-01-26T05:42:44.228Z,4.07
2023-01-26T05:45:13.032Z,4.08
2023-01-26T05:47:44.952Z,4.09
2023-01-26T05:50:13.962Z,4.10
2023-01-26T05:52:46.986Z,4.13
2023-01-26T05:55:16.047Z,4.16
2023-01-26T05:57:45.229Z,4.16
2023-01-26T06:00:14.992Z,4.18
2023-01-26T06:02:43.738Z,4.13
2023-01-26T06:05:12.539Z,4.12
2023-01-26T06:07:41.548Z,4.13
2023-01-26T06:10:11.391Z,4.13
2023-01-26T06:12:42.221Z,4.09
2023-01-26T06:15:13.043Z,4.04
2023-01-26T06:17:42.294Z,4.04
2023-01-26T06:20:12.960Z,4.07
2023-01-26T06:22:42.503Z,4.09
2023-01-26T06:25:11.966Z,4.12
2023-01-26T06:27:42.812Z,4.05
2023-01-26T06:30:12.751Z,4.04
2023-01-26T06:32:42.470Z,4.04
2023-01-26T06:35:12.435Z,4.09
2023-01-26T06:37:41.303Z,4.09
2023-01-26T06:40:11.053Z,4.05
2023-01-26T06:42:40.158Z,4.04
2023-01-26T06:45:09.416Z,4.05
2023-01-26T06:47:38.820Z,4.07
2023-01-26T06:50:07.741Z,4.10
2023-01-26T06:52:36.650Z,4.09
2023-01-26T06:55:05.917Z,4.08
2023-01-26T06:57:34.835Z,4.09
2023-01-26T07:00:03.909Z,4.13
2023-01-26T07:02:32.667Z,4.17
2023-01-26T07:05:01.370Z,4.22
2023-01-26T07:07:30.226Z,4.27
2023-01-26T07:09:59.315Z,4.31
2023-01-26T07:12:46.765Z,4.34
2023-01-26T07:15:15.493Z,4.36
2023-01-26T07:17:44.296Z,4.43
2023-01-26T07:20:13.452Z,4.50
2023-01-26T07:22:42.353Z,4.54
2023-01-26T07:25:11.389Z,4.66
2023-01-26T07:27:40.399Z,4.76
2023-01-26T07:30:11.148Z,4.83
2023-01-26T07:32:40.585Z,4.86
2023-01-26T07:35:09.609Z,4.90
2023-01-26T07:37:38.648Z,4.98
2023-01-26T07:40:08.444Z,5.06
2023-01-26T07:42:37.674Z,5.08
2023-01-26T07:45:07.258Z,5.07
2023-01-26T07:47:36.509Z,5.10
2023-01-26T07:50:07.767Z,5.20
2023-01-26T07:52:36.501Z,5.31
2023-01-26T07:55:06.484Z,5.44
2023-01-26T07:57:35.759Z,5.56
2023-01-26T08:00:05.507Z,5.76
2023-01-26T08:02:34.933Z,6.05
2023-01-26T08:05:04.407Z,6.45
2023-01-26T08:07:33.619Z,6.89
2023-01-26T08:10:02.674Z,7.27
2023-01-26T08:12:31.921Z,7.72
2023-01-26T08:15:00.668Z,7.99
2023-01-26T08:17:31.640Z,8.18
2023-01-26T08:20:00.694Z,8.43
2023-01-26T08:22:29.702Z,8.58
2023-01-26T08:24:58.765Z,8.74
2023-01-26T08:27:28.422Z,9.05
2023-01-26T08:29:57.374Z,9.29
2023-01-26T08:32:26.311Z,9.48
2023-01-26T08:34:55.356Z,9.61
2023-01-26T08:37:24.767Z,9.82
2023-01-26T08:39:55.169Z,10.00
2023-01-26T08:42:25.939Z,9.96
2023-01-26T08:44:55.417Z,9.83
2023-01-26T08:47:25.194Z,9.73
2023-01-26T08:49:54.519Z,9.54
2023-01-26T08:52:23.538Z,9.41
2023-01-26T08:54:54.461Z,9.15
2023-01-26T08:57:24.126Z,9.04
2023-01-26T08:59:53.422Z,9.04
2023-01-26T09:02:22.884Z,9.02
2023-01-26T09:04:52.024Z,8.92
2023-01-26T09:07:21.231Z,9.10
2023-01-26T09:09:50.406Z,9.19
2023-01-26T09:12:19.542Z,9.23
2023-01-26T09:14:49.595Z,9.36
2023-01-26T09:17:18.761Z,9.46
2023-01-26T09:19:47.690Z,9.55
2023-01-26T09:22:17.006Z,9.58
2023-01-26T09:24:46.788Z,9.53
2023-01-26T09:27:16.384Z,9.48
2023-01-26T09:29:45.810Z,9.50
2023-01-26T09:32:15.226Z,9.44
2023-01-26T09:34:45.997Z,9.41
2023-01-26T09:37:16.309Z,9.42
2023-01-26T09:39:45.740Z,9.30
2023-01-26T09:42:40.877Z,9.28
2023-01-26T09:45:12.894Z,9.11
2023-01-26T09:48:11.164Z,9.02
2023-01-26T09:51:12.226Z,8.80
2023-01-26T09:54:16.801Z,8.82
2023-01-26T09:56:46.527Z,8.77
2023-01-26T09:59:53.912Z,8.79
2023-01-26T10:02:47.340Z,8.67
2023-01-26T10:05:33.234Z,8.73
2023-01-26T10:08:03.620Z,9.04
2023-01-26T10:10:40.303Z,9.36
2023-01-26T10:13:15.072Z,9.59
2023-01-26T10:15:49.486Z,10.02
2023-01-26T10:18:27.053Z,10.25
2023-01-26T10:20:59.836Z,10.55
2023-01-26T10:23:31.798Z,10.73
2023-01-26T10:26:17.239Z,10.65
2023-01-26T10:28:48.814Z,10.66
2023-01-26T10:31:23.186Z,10.91
2023-01-26T10:34:18.472Z,11.47
2023-01-26T10:36:48.322Z,11.67
2023-01-26T10:39:18.951Z,11.57
2023-01-26T10:42:19.575Z,11.59
2023-01-26T10:44:51.489Z,11.39
2023-01-26T10:47:22.617Z,11.47
2023-01-26T10:49:51.941Z,11.57
2023-01-26T10:52:29.307Z,11.62
2023-01-26T10:55:13.829Z,11.46
2023-01-26T10:57:43.412Z,11.39
2023-01-26T11:00:30.131Z,11.38
2023-01-26T11:03:20.871Z,11.07
2023-01-26T11:06:07.911Z,10.76
2023-01-26T11:08:40.778Z,10.51
2023-01-26T11:11:30.477Z,10.48
2023-01-26T11:14:25.862Z,10.39
2023-01-26T11:16:54.726Z,10.55
2023-01-26T11:19:24.536Z,10.63
2023-01-26T11:22:02.817Z,10.45
2023-01-26T11:24:44.446Z,10.27
2023-01-26T11:27:37.879Z,10.19
2023-01-26T11:30:24.451Z,10.12
2023-01-26T11:33:01.093Z,10.24
2023-01-26T11:35:40.110Z,10.21
2023-01-26T11:38:10.002Z,10.22
2023-01-26T11:40:51.643Z,10.46
2023-01-26T11:43:57.097Z,10.73
2023-01-26T11:46:57.147Z,11.07
2023-01-26T11:49:33.661Z,11.61
2023-01-26T11:52:25.359Z,12.09
2023-01-26T11:55:07.509Z,12.70
2023-01-26T11:57:49.370Z,14.34
2023-01-26T12:00:29.887Z,15.18
2023-01-26T12:03:06.224Z,15.53
2023-01-26T12:05:58.864Z,16.10
2023-01-26T12:09:05.833Z,15.80
2023-01-26T12:11:41.857Z,15.86
2023-01-26T12:14:37.987Z,16.10
2023-01-26T12:17:18.412Z,15.74
2023-01-26T12:19:55.332Z,15.20
2023-01-26T12:22:34.144Z,14.57
2023-01-26T12:25:20.861Z,14.08
2023-01-26T12:28:14.729Z,13.55
2023-01-26T12:30:56.767Z,12.99
2023-01-26T12:33:26.595Z,12.69
2023-01-26T12:36:18.004Z,12.76
2023-01-26T12:39:07.743Z,12.76
2023-01-26T12:42:01.026Z,13.33
2023-01-26T12:44:45.229Z,15.15
2023-01-26T12:47:35.764Z,16.57
2023-01-26T12:50:16.753Z,16.76
2023-01-26T12:52:51.731Z,16.20
2023-01-26T12:55:30.171Z,15.85
2023-01-26T12:58:28.324Z,15.33
2023-01-26T13:01:12.964Z,14.38
2023-01-26T13:04:03.404Z,13.94
2023-01-26T13:06:32.371Z,13.37
2023-01-26T13:09:15.533Z,13.03
2023-01-26T13:11:46.566Z,12.75
2023-01-26T13:14:37.787Z,12.74
2023-01-26T13:17:15.893Z,12.44
2023-01-26T13:19:44.825Z,12.76
2023-01-26T13:22:20.285Z,13.32
2023-01-26T13:24:58.862Z,13.02
2023-01-26T13:27:39.698Z,12.95
2023-01-26T13:30:31.322Z,12.85
2023-01-26T13:33:03.155Z,12.73
2023-01-26T13:35:32.423Z,12.84
2023-01-26T13:38:11.190Z,12.63
2023-01-26T13:40:51.223Z,12.61
2023-01-26T13:43:38.485Z,12.56
2023-01-26T13:46:14.842Z,12.35
2023-01-26T13:48:48.782Z,12.10
2023-01-26T13:51:22.047Z,11.99
2023-01-26T13:54:08.112Z,12.33
2023-01-26T13:56:42.647Z,12.35
2023-01-26T13:59:15.989Z,12.36
2023-01-26T14:01:50.113Z,12.58
2023-01-26T14:04:22.593Z,12.38
2023-01-26T14:07:18.199Z,12.05
2023-01-26T14:10:01.401Z,11.75
2023-01-26T14:12:35.577Z,11.45
2023-01-26T14:15:07.926Z,11.33
2023-01-26T14:17:49.815Z,11.20
2023-01-26T14:20:29.272Z,10.90
2023-01-26T14:23:19.628Z,10.91
2023-01-26T14:26:26.397Z,10.86
2023-01-26T14:28:55.379Z,10.68
2023-01-26T14:31:26.621Z,10.49
2023-01-26T14:33:59.199Z,10.46
2023-01-26T14:36:32.583Z,10.35
2023-01-26T14:39:02.216Z,10.24
2023-01-26T14:41:35.377Z,10.09
2023-01-26T14:44:06.704Z,9.89
2023-01-26T14:47:00.273Z,9.82
2023-01-26T14:49:49.220Z,9.59
2023-01-26T14:52:29.161Z,9.55
2023-01-26T14:55:06.777Z,9.52
2023-01-26T14:57:35.950Z,9.49
2023-01-26T15:00:10.638Z,9.48
2023-01-26T15:02:44.926Z,9.46
2023-01-26T15:05:21.155Z,9.29
2023-01-26T15:08:15.833Z,9.26
2023-01-26T15:11:23.659Z,9.21
2023-01-26T15:13:56.653Z,9.07
2023-01-26T15:16:27.236Z,8.90
2023-01-26T15:19:07.082Z,8.92
2023-01-26T15:21:40.988Z,8.92
2023-01-26T15:24:14.619Z,8.98
2023-01-26T15:26:45.478Z,9.03
2023-01-26T15:29:32.367Z,9.03
2023-01-26T15:32:02.089Z,8.87
2023-01-26T15:34:32.741Z,8.72
2023-01-26T15:37:03.379Z,8.57
2023-01-26T15:39:33.273Z,8.50
2023-01-26T15:42:16.317Z,8.36
2023-01-26T15:44:45.574Z,8.21
2023-01-26T15:47:15.159Z,8.08
2023-01-26T15:49:45.360Z,7.95
2023-01-26T15:52:20.322Z,7.80
2023-01-26T15:54:50.900Z,7.74
2023-01-26T15:57:20.781Z,7.62
2023-01-26T15:59:49.824Z,7.47
2023-01-26T16:02:21.575Z,7.34
2023-01-26T16:04:51.639Z,7.13
2023-01-26T16:07:21.374Z,7.07
2023-01-26T16:09:52.399Z,7.04
2023-01-26T16:12:36.546Z,6.95
2023-01-26T16:15:34.629Z,6.81
2023-01-26T16:18:04.637Z,6.62
2023-01-26T16:20:34.917Z,6.61
2023-01-26T16:23:04.850Z,6.58
2023-01-26T16:25:33.940Z,6.50
2023-01-26T16:28:03.307Z,6.44
2023-01-26T16:30:32.610Z,6.34
2023-01-26T16:33:01.576Z,6.26
2023-01-26T16:35:31.120Z,6.21
2023-01-26T16:38:00.125Z,6.16
2023-01-26T16:40:29.340Z,6.11
2023-01-26T16:42:58.202Z,6.04
2023-01-26T16:45:27.206Z,5.96
2023-01-26T16:48:00.438Z,5.87
2023-01-26T16:50:31.706Z,5.77
2023-01-26T16:53:13.736Z,5.75
2023-01-26T16:55:43.116Z,5.69
2023-01-26T16:58:13.163Z,5.65
2023-01-26T17:00:43.345Z,5.59
2023-01-26T17:03:13.596Z,5.46
2023-01-26T17:05:42.787Z,5.44
2023-01-26T17:08:13.845Z,5.42
2023-01-26T17:10:59.537Z,5.44
2023-01-26T17:13:31.968Z,5.32
2023-01-26T17:16:01.503Z,5.31
2023-01-26T17:18:33.990Z,5.26
2023-01-26T17:21:04.389Z,5.22
2023-01-26T17:23:33.711Z,5.22
2023-01-26T17:26:04.256Z,5.14
2023-01-26T17:28:33.969Z,5.14
2023-01-26T17:31:10.302Z,5.15
2023-01-26T17:33:40.431Z,5.14
2023-01-26T17:36:11.201Z,5.16
2023-01-26T17:38:40.149Z,5.18
2023-01-26T17:41:09.991Z,5.14
2023-01-26T17:43:39.117Z,5.09
2023-01-26T17:46:14.107Z,5.06
2023-01-26T17:48:45.523Z,5.07
2023-01-26T17:51:21.347Z,5.01
2023-01-26T17:53:50.472Z,4.94
2023-01-26T17:56:21.811Z,4.89
2023-01-26T17:58:52.688Z,4.89
2023-01-26T18:01:24.163Z,4.86
2023-01-26T18:03:54.276Z,4.86
2023-01-26T18:06:24.174Z,4.83
2023-01-26T18:08:52.977Z,4.77
2023-01-26T18:11:22.921Z,4.72
2023-01-26T18:13:52.349Z,4.66
2023-01-26T18:16:22.443Z,4.65
2023-01-26T18:18:58.995Z,4.61
2023-01-26T18:21:30.093Z,4.54
2023-01-26T18:24:03.155Z,4.47
2023-01-26T18:26:35.704Z,4.46
2023-01-26T18:29:07.158Z,4.44
2023-01-26T18:31:41.022Z,4.35
2023-01-26T18:34:11.847Z,4.34
2023-01-26T18:36:42.110Z,4.34
2023-01-26T18:39:14.952Z,4.31
2023-01-26T18:41:44.470Z,4.26
2023-01-26T18:44:13.530Z,4.24
2023-01-26T18:46:42.920Z,4.17
2023-01-26T18:49:12.964Z,4.11
2023-01-26T18:51:48.474Z,4.14
2023-01-26T18:54:20.627Z,4.22
2023-01-26T18:56:49.648Z,4.16
2023-01-26T18:59:19.331Z,4.15
2023-01-26T19:01:49.267Z,4.13
2023-01-26T19:04:18.682Z,4.09
2023-01-26T19:06:48.220Z,4.11
2023-01-26T19:09:17.621Z,4.12
2023-01-26T19:11:46.560Z,4.13
2023-01-26T19:14:15.847Z,4.07
2023-01-26T19:16:48.342Z,4.09
2023-01-26T19:19:17.665Z,4.11
2023-01-26T19:21:46.622Z,4.13
2023-01-26T19:24:16.629Z,4.09
2023-01-26T19:26:46.071Z,4.03
2023-01-26T19:29:15.699Z,4.01
2023-01-26T19:31:44.885Z,4.00
2023-01-26T19:34:16.287Z,3.95
2023-01-26T19:36:47.278Z,3.91
2023-01-26T19:39:22.370Z,3.91
2023-01-26T19:41:56.135Z,3.86
2023-01-26T19:44:25.130Z,3.85
2023-01-26T19:46:55.101Z,3.87
2023-01-26T19:49:24.297Z,3.83
2023-01-26T19:51:54.194Z,3.80
2023-01-26T19:54:22.763Z,3.83
2023-01-26T19:56:52.337Z,3.85
2023-01-26T19:59:22.813Z,3.88
2023-01-26T20:01:55.183Z,3.81
2023-01-26T20:04:24.834Z,3.75
2023-01-26T20:06:54.443Z,3.71
2023-01-26T20:09:23.781Z,3.74
2023-01-26T20:11:53.214Z,3.74
2023-01-26T20:14:29.067Z,3.75
2023-01-26T20:16:58.306Z,3.67
2023-01-26T20:19:28.687Z,3.68
2023-01-26T20:21:59.293Z,3.65
2023-01-26T20:24:30.238Z,3.65
2023-01-26T20:26:59.529Z,3.61
2023-01-26T20:29:28.457Z,3.53
2023-01-26T20:31:57.561Z,3.53
2023-01-26T20:34:26.449Z,3.52
2023-01-26T20:37:00.639Z,3.48
2023-01-26T20:39:29.779Z,3.49
2023-01-26T20:41:59.228Z,3.47
2023-01-26T20:44:28.432Z,3.47
2023-01-26T20:46:59.193Z,3.46
2023-01-26T20:49:28.738Z,3.44
2023-01-26T20:51:58.462Z,3.45
2023-01-26T20:54:29.024Z,3.42
2023-01-26T20:56:58.230Z,3.42
2023-01-26T20:59:27.272Z,3.42
2023-01-26T21:01:56.554Z,3.39
2023-01-26T21:04:31.610Z,3.37
2023-01-26T21:07:00.786Z,3.30
2023-01-26T21:09:29.495Z,3.27
2023-01-26T21:11:58.238Z,3.23
2023-01-26T21:14:27.061Z,3.27
2023-01-26T21:16:56.917Z,3.26
2023-01-26T21:19:26.716Z,3.23
2023-01-26T21:21:56.553Z,3.16
2023-01-26T21:24:26.587Z,3.19
2023-01-26T21:26:55.770Z,3.20
2023-01-26T21:29:26.148Z,3.18
2023-01-26T21:31:55.379Z,3.12
2023-01-26T21:34:24.656Z,3.06
2023-01-26T21:36:54.745Z,3.02
2023-01-26T21:39:24.005Z,3.01
2023-01-26T21:41:56.515Z,2.96
2023-01-26T21:44:54.596Z,2.90
2023-01-26T21:47:23.981Z,2.78
2023-01-26T21:49:54.401Z,2.80
2023-01-26T21:52:41.779Z,2.77
2023-01-26T21:55:10.520Z,2.68
2023-01-26T21:57:58.135Z,2.66
2023-01-26T22:00:27.394Z,2.60
2023-01-26T22:02:56.997Z,2.63
2023-01-26T22:05:26.234Z,2.67
2023-01-26T22:07:55.624Z,2.66
2023-01-26T22:10:24.556Z,2.65
2023-01-26T22:12:53.751Z,2.64
2023-01-26T22:15:22.577Z,2.64
2023-01-26T22:17:51.466Z,2.72
2023-01-26T22:20:20.502Z,2.72
2023-01-26T22:22:49.040Z,2.71
2023-01-26T22:25:17.896Z,2.66
2023-01-26T22:27:47.321Z,2.66
2023-01-26T22:30:16.467Z,2.71
2023-01-26T22:32:45.213Z,2.74
2023-01-26T22:35:14.216Z,2.73
2023-01-26T22:37:43.436Z,2.70
2023-01-26T22:40:13.666Z,2.71
2023-01-26T22:42:42.946Z,2.67
2023-01-26T22:45:12.451Z,2.68
2023-01-26T22:47:41.827Z,2.66
2023-01-26T22:50:11.976Z,2.63
2023-01-26T22:52:41.783Z,2.58
2023-01-26T22:55:10.594Z,2.58
2023-01-26T22:57:40.159Z,2.57
2023-01-26T23:00:10.096Z,2.55
2023-01-26T23:02:39.563Z,2.51
2023-01-26T23:05:08.793Z,2.46
2023-01-26T23:07:37.841Z,2.41
2023-01-26T23:10:07.903Z,2.42
2023-01-26T23:12:36.679Z,2.41
2023-01-26T23:15:05.859Z,2.40
2023-01-26T23:17:34.486Z,2.39
2023-01-26T23:20:03.317Z,2.44
2023-01-26T23:22:32.030Z,2.48
2023-01-26T23:25:19.411Z,2.54
2023-01-26T23:27:48.406Z,2.52
2023-01-26T23:30:17.462Z,2.51
2023-01-26T23:32:46.211Z,2.51
2023-01-26T23:35:15.067Z,2.51
2023-01-26T23:37:43.776Z,2.53
2023-01-26T23:40:13.398Z,2.57
2023-01-26T23:43:00.417Z,2.58
2023-01-26T23:45:32.169Z,2.53
2023-01-26T23:48:01.747Z,2.52
2023-01-26T23:50:30.789Z,2.53
2023-01-26T23:52:59.751Z,2.53
2023-01-26T23:55:28.805Z,2.53
2023-01-26T23:57:57.491Z,2.49
